In Rescue
 
Open Full Screen Window  High Contrast Mode
Wind Gusting 00 knots
04
January 24, 2020 8:08 PM CST
Weather Information
Wind Direction
  320 °
Wind Speed
  04 kt (5 mph)
Wind Gust
  00 kt (0 mph)
Altimeter
30.04 in
Visibility
10 SM
Temperature
-05° C
23° F
Dewpoint
-07° C
19° F
Humidity
86%
1hr Rain Fall
00.00 in.
24hr Rain Fall
00.00 in.
Sky Condition
Overcast @ 2,400 ft
MVFR

METAR KBJI 250208Z AUTO 32004KT 10SM OVC024 M05/M07 A3004 RMK AO2 T10511070

FAA Disclaimer: The data displayed is for advisory purposes only and is not to be used for flight planning or operations.